createdAt,value
2023-05-08T00:06:42.065Z,99596.11
2023-05-08T00:17:07.959Z,99595.41
2023-05-08T00:27:34.181Z,99600.98
2023-05-08T00:38:00.095Z,99598.23
2023-05-08T00:48:26.304Z,99592.91
2023-05-08T00:58:53.303Z,99590.57
2023-05-08T01:09:19.399Z,99594.02
2023-05-08T01:19:59.156Z,99600.20
2023-05-08T01:30:55.084Z,99607.02
2023-05-08T01:41:29.435Z,99615.71
2023-05-08T01:52:04.368Z,99621.42
2023-05-08T02:02:32.307Z,99619.05
2023-05-08T02:12:59.696Z,99614.56
2023-05-08T02:23:27.521Z,99619.14
2023-05-08T02:33:55.427Z,99619.67
2023-05-08T02:44:20.635Z,99619.11
2023-05-08T02:54:54.021Z,99619.05
2023-05-08T03:05:21.946Z,99626.41
2023-05-08T03:15:56.250Z,99636.07
2023-05-08T03:26:23.065Z,99637.96
2023-05-08T03:36:49.913Z,99643.39
2023-05-08T03:47:15.803Z,99647.73
2023-05-08T03:57:47.210Z,99651.13
2023-05-08T04:08:21.722Z,99654.88
2023-05-08T04:18:51.130Z,99658.30
2023-05-08T04:29:17.433Z,99673.75
2023-05-08T04:39:43.831Z,99680.73
2023-05-08T04:50:11.060Z,99690.32
2023-05-08T05:00:37.044Z,99707.30
2023-05-08T05:11:02.851Z,99711.96
2023-05-08T05:21:28.340Z,99727.52
2023-05-08T05:31:53.904Z,99733.15
2023-05-08T05:42:19.617Z,99734.27
2023-05-08T05:52:45.260Z,99740.29
2023-05-08T06:03:12.258Z,99766.92
2023-05-08T06:13:40.321Z,99774.14
2023-05-08T06:24:07.074Z,99775.91
2023-05-08T06:34:32.776Z,99774.71
2023-05-08T06:44:58.541Z,99778.70
2023-05-08T06:55:24.919Z,99797.27
2023-05-08T07:05:50.890Z,99806.34
2023-05-08T07:16:17.128Z,99812.13
2023-05-08T07:26:43.351Z,99813.74
2023-05-08T07:37:10.125Z,99824.12
2023-05-08T07:47:35.713Z,99832.46
2023-05-08T07:58:01.291Z,99833.96
2023-05-08T08:08:28.734Z,99830.03
2023-05-08T08:18:54.940Z,99833.05
2023-05-08T08:29:21.007Z,99836.46
2023-05-08T08:39:48.546Z,99838.71
2023-05-08T08:50:16.285Z,99846.04
2023-05-08T09:00:42.768Z,99845.63
2023-05-08T09:11:08.801Z,99862.23
2023-05-08T09:21:35.476Z,99865.44
2023-05-08T09:32:00.942Z,99862.16
2023-05-08T09:42:32.188Z,99856.98
2023-05-08T09:52:58.309Z,99853.30
2023-05-08T10:03:24.699Z,99844.75
2023-05-08T10:13:50.679Z,99844.35
2023-05-08T10:24:19.577Z,99847.25
2023-05-08T10:34:45.366Z,99836.36
2023-05-08T10:45:12.674Z,99827.44
2023-05-08T10:55:41.517Z,99816.33
2023-05-08T11:06:07.551Z,99817.67
2023-05-08T11:17:14.089Z,99817.15
2023-05-08T11:28:17.947Z,99822.58
2023-05-08T11:38:45.332Z,99812.55
2023-05-08T11:49:17.780Z,99807.70
2023-05-08T11:59:45.558Z,99793.01
2023-05-08T12:10:13.031Z,99796.04
2023-05-08T12:31:23.032Z,99796.30
2023-05-08T12:41:53.876Z,99791.84
2023-05-08T12:52:19.646Z,99792.38
2023-05-08T13:02:54.941Z,99787.20
2023-05-08T13:13:23.326Z,99783.10
2023-05-08T13:23:49.252Z,99789.52
2023-05-08T13:34:15.322Z,99779.58
2023-05-08T13:44:40.974Z,99774.38
2023-05-08T13:55:09.379Z,99777.84
2023-05-08T14:05:33.750Z,99778.83
2023-05-08T14:15:59.871Z,99767.33
2023-05-08T14:26:26.545Z,99756.95
2023-05-08T14:36:52.638Z,99766.39
2023-05-08T14:47:18.475Z,99758.41
2023-05-08T14:57:44.571Z,99759.67
2023-05-08T15:08:11.028Z,99760.89
2023-05-08T15:18:37.345Z,99775.53
2023-05-08T15:29:03.306Z,99762.65
2023-05-08T15:39:29.100Z,99757.41
2023-05-08T15:49:54.803Z,99763.98
2023-05-08T16:00:23.221Z,99751.21
2023-05-08T16:10:52.443Z,99744.10
2023-05-08T16:21:18.522Z,99744.11
2023-05-08T16:31:44.128Z,99741.86
2023-05-08T16:42:09.836Z,99742.87
2023-05-08T16:52:36.276Z,99751.94
2023-05-08T17:03:02.151Z,99751.25
2023-05-08T17:13:28.228Z,99758.04
2023-05-08T17:23:54.961Z,99758.92
2023-05-08T17:34:20.842Z,99757.36
2023-05-08T17:44:47.473Z,99744.64
2023-05-08T17:55:13.806Z,99738.54
2023-05-08T18:05:40.451Z,99749.16
2023-05-08T18:16:05.992Z,99756.48
2023-05-08T18:26:31.821Z,99765.48
2023-05-08T18:36:58.154Z,99766.85
2023-05-08T18:47:23.976Z,99768.90
2023-05-08T18:57:49.582Z,99776.16
2023-05-08T19:08:16.064Z,99785.27
2023-05-08T19:18:42.205Z,99777.02
2023-05-08T19:29:08.121Z,99774.80
2023-05-08T19:39:33.741Z,99772.91
2023-05-08T19:49:59.359Z,99769.26
2023-05-08T20:00:25.395Z,99761.65
2023-05-08T20:10:51.524Z,99757.34
2023-05-08T20:21:17.044Z,99751.18
2023-05-08T20:31:42.297Z,99748.52
2023-05-08T20:42:08.171Z,99746.66
2023-05-08T20:52:35.385Z,99739.48
2023-05-08T21:03:04.019Z,99738.80
2023-05-08T21:13:29.868Z,99733.59
2023-05-08T21:23:55.976Z,99734.48
2023-05-08T21:34:22.402Z,99736.82
2023-05-08T21:44:48.250Z,99727.52
2023-05-08T21:55:14.575Z,99717.58
2023-05-08T22:05:40.794Z,99722.95
2023-05-08T22:16:08.123Z,99709.69
2023-05-08T22:26:33.838Z,99699.23
2023-05-08T22:37:00.049Z,99695.69
2023-05-08T22:47:25.996Z,99692.96
2023-05-08T22:57:51.876Z,99687.64
2023-05-08T23:08:17.506Z,99691.77
2023-05-08T23:18:43.460Z,99685.87
2023-05-08T23:29:09.297Z,99680.09
2023-05-08T23:39:41.198Z,99676.36
2023-05-08T23:50:08.364Z,99665.64
